Terminal Aerodrome Forecast
Issued by NWS

Home | Current Version | Previous Version | Text Only | Print | Product List | Glossary On
Versions: 1 2 3 4 5 6 7 8 9 10 11 12 13 14 15 16 17 18 19 20 21 22 23 24 25 26 27 28 29 30 31 32 33 34 35 36 37 38 39 40
000
FTAK31 PAFA 201732
TAFABT
TAF
PABT 201732Z 2018/2118 01004KT P6SM VCSH FEW010 BKN027 OVC040
     FM202200 03004KT P6SM VCSH SCT025 BKN035 OVC050
     FM202300 08004KT P6SM SCT035 BKN060
     FM210800 02004KT P6SM VCSH SCT025 OVC050=

USA.gov is the U.S. government's official web portal to all federal, state and local government web resources and services.